GMAD/AGA METAR and TAF weather

Enter ICAO airport designator
Station Type Date Time Source
GMAD METAR 2019/08/25 13:30 UTC NOAA

GMAD 251330Z 00000KT 8000 FEW026 BKN100 31/16 Q1011 NOSIG


Station Type Date Time Source
GMAD Decoded METAR 2019/08/25 13:30 UTC NOAA

Station name not available
Aug 25, 2019 - 09:30 AM EDT / 2019.08.25 1330 UTC
Wind: Calm:0
Visibility: 4 mile(s):0
Sky conditions: mostly cloudy
Temperature: 87 F (31 C)
Dew Point: 60 F (16 C)
Relative Humidity: 40%
Pressure (altimeter): 29.85 in. Hg (1011 hPa)
ob: GMAD 251330Z 00000KT 8000 FEW026 BKN100 31/16 Q1011 NOSIG
cycle: 13

Station Type Date Time Source
GMAD TAF 2019/08/25 12:16 UTC NOAA

TAF GMAD 251100Z 2512/2618 26010KT 8000 FEW026 BKN080
BECMG 2517/2519 18008KT

Example: see airport list